Huntsville International Carl T Jones Field
KHSV : rendu visible

Aérodrome :











RETROUVEZ-NOUS SUR...

 
LOGIN :

S'inscrire | Disclaimer

   EN    FR    IT 

 









Légende :    VFR   VFR Marginal   IFR   IFR Intensif   IFR Très Intensif
Visi : 
Plafond : 
>= 8 km
>= 3000ft
5 à 8 km
1000 à 3000 ft
1500m à 5 km
500 à 1000 ft
800 à 1500m
200 à 500 ft
< 800m
< 200 ft
Symboles :   Orages  Brouillard  Fortes neiges  Fortes précipitations  Vent > 20 kt






- Altitude de l'aérodrome : 629 ft
- Code IATA : HSV


KHSV - Huntsville International Carl T Jones Field

DERNIER METAR :
  • 191453Z 19007KT 10SM FEW065 10/04 A2988 RMK AO2 SLP119 60000 T01000039 53005 $

METARs EXPIRÉS :
  • 191353Z 18006KT 10SM FEW065 08/04 A2988 RMK AO2 SLP118 T00780039 $
  • 191253Z 13005KT 10SM BKN060 BKN075 06/04 A2986 RMK AO2 RAB33E53 SLP112 P0000 T00610039 $

TAF KHSV
Valide du 19 à 13h jusqu'au 20 à 12h UTC


191250Z 1913/2012 00000KT P6SM BKN045
TEMPO 1913/1914 11004KT P6SM -RA OVC050
FM191600 27007KT P6SM FEW250
FM192000 27009G14KT P6SM FEW250
FM200100 VRB03KT P6SM SKC



MET'MAP, la Météo Aéronautique d'un coup d'oeil ! - Copyright ORBIFLY Décembre 2007 - Disclaimer

ORBIFLY MET'MAP TEAM :

Programmation & Développement : Alexandra Zaïnal
Conception & Développement : Baudouin d'Aumeries
Co-Programmation & Développement : Marc-Olivier Méhu
Soutien technique & logistique : Manuel Goepfert

Contact : metmap@orbifly.com




SOURCES & CREDITS :

   NOAA       Earth
Advisory